createdAt,value
2023-09-26T00:01:16.766Z,59.05
2023-09-26T00:03:44.645Z,59.39
2023-09-26T00:06:22.098Z,59.61
2023-09-26T00:08:50.496Z,59.93
2023-09-26T00:11:18.567Z,60.14
2023-09-26T00:13:46.407Z,59.96
2023-09-26T00:16:15.779Z,60.26
2023-09-26T00:18:43.968Z,60.10
2023-09-26T00:21:12.319Z,60.00
2023-09-26T00:23:40.205Z,60.87
2023-09-26T00:26:08.672Z,60.78
2023-09-26T00:28:36.636Z,60.72
2023-09-26T00:31:06.411Z,61.29
2023-09-26T00:33:35.750Z,60.52
2023-09-26T00:36:10.120Z,60.78
2023-09-26T00:38:37.979Z,61.20
2023-09-26T00:41:05.668Z,60.94
2023-09-26T00:43:33.681Z,60.52
2023-09-26T00:46:02.371Z,60.51
2023-09-26T00:48:30.195Z,60.56
2023-09-26T00:51:02.135Z,61.09
2023-09-26T00:53:31.793Z,61.66
2023-09-26T00:56:01.269Z,61.18
2023-09-26T00:58:32.314Z,61.57
2023-09-26T01:01:00.667Z,62.07
2023-09-26T01:03:29.091Z,62.17
2023-09-26T01:05:57.062Z,61.88
2023-09-26T01:08:26.053Z,61.40
2023-09-26T01:10:53.717Z,61.60
2023-09-26T01:13:21.643Z,62.25
2023-09-26T01:15:49.309Z,62.22
2023-09-26T01:18:24.223Z,62.33
2023-09-26T01:20:52.780Z,62.17
2023-09-26T01:23:24.993Z,61.60
2023-09-26T01:25:55.206Z,61.63
2023-09-26T01:28:22.805Z,61.88
2023-09-26T01:30:50.490Z,61.61
2023-09-26T01:33:20.251Z,61.85
2023-09-26T01:35:47.904Z,62.13
2023-09-26T01:38:15.856Z,62.21
2023-09-26T01:40:43.447Z,62.96
2023-09-26T01:43:13.999Z,62.30
2023-09-26T01:45:43.074Z,62.58
2023-09-26T01:48:10.947Z,61.75
2023-09-26T01:50:39.068Z,61.76
2023-09-26T01:53:06.742Z,61.94
2023-09-26T01:55:34.394Z,62.44
2023-09-26T01:58:02.358Z,62.29
2023-09-26T02:00:31.474Z,61.97
2023-09-26T02:02:59.684Z,61.51
2023-09-26T02:05:27.372Z,61.17
2023-09-26T02:07:55.262Z,61.23
2023-09-26T02:10:23.136Z,60.84
2023-09-26T02:12:52.284Z,60.91
2023-09-26T02:15:20.861Z,60.50
2023-09-26T02:17:49.897Z,60.28
2023-09-26T02:20:19.660Z,61.53
2023-09-26T02:22:49.163Z,61.25
2023-09-26T02:25:20.288Z,61.80
2023-09-26T02:27:48.910Z,60.91
2023-09-26T02:30:17.849Z,61.60
2023-09-26T02:32:45.510Z,61.42
2023-09-26T02:35:17.901Z,62.73
2023-09-26T02:37:45.830Z,62.12
2023-09-26T02:40:14.638Z,62.43
2023-09-26T02:42:44.959Z,61.67
2023-09-26T02:45:13.297Z,62.43
2023-09-26T02:47:41.380Z,62.44
2023-09-26T02:50:09.864Z,63.24
2023-09-26T02:52:43.345Z,63.19
2023-09-26T02:55:11.604Z,63.15
2023-09-26T02:57:39.690Z,63.35
2023-09-26T03:00:16.973Z,63.33
2023-09-26T03:02:45.674Z,64.12
2023-09-26T03:05:13.674Z,63.15
2023-09-26T03:07:42.637Z,63.88
2023-09-26T03:10:10.903Z,63.78
2023-09-26T03:12:38.641Z,64.17
2023-09-26T03:15:08.493Z,63.05
2023-09-26T03:17:36.431Z,63.33
2023-09-26T03:20:09.590Z,64.35
2023-09-26T03:22:37.229Z,64.36
2023-09-26T03:25:07.510Z,63.99
2023-09-26T03:27:35.403Z,63.71
2023-09-26T03:30:04.023Z,63.92
2023-09-26T03:32:31.815Z,64.11
2023-09-26T03:34:59.559Z,64.67
2023-09-26T03:37:27.315Z,64.57
2023-09-26T03:39:55.477Z,64.77
2023-09-26T03:42:24.520Z,64.72
2023-09-26T03:44:52.316Z,64.66
2023-09-26T03:47:19.949Z,64.60
2023-09-26T03:49:47.566Z,64.74
2023-09-26T03:52:15.502Z,64.25
2023-09-26T03:54:43.103Z,64.27
2023-09-26T03:57:10.702Z,64.13
2023-09-26T03:59:39.857Z,64.16
2023-09-26T04:02:07.550Z,63.76
2023-09-26T04:04:35.695Z,63.52
2023-09-26T04:07:05.040Z,62.75
2023-09-26T04:09:36.013Z,63.12
2023-09-26T04:12:05.508Z,63.04
2023-09-26T04:14:33.135Z,63.21
2023-09-26T04:17:02.114Z,62.79
2023-09-26T04:19:30.139Z,62.86
2023-09-26T04:21:58.044Z,63.10
2023-09-26T04:24:25.727Z,61.94
2023-09-26T04:26:53.408Z,61.95
2023-09-26T04:29:21.689Z,61.62
2023-09-26T04:31:49.491Z,61.38
2023-09-26T04:34:19.054Z,61.64
2023-09-26T04:36:46.958Z,61.36
2023-09-26T04:39:14.827Z,61.53
2023-09-26T04:41:42.453Z,61.72
2023-09-26T04:44:10.058Z,61.54
2023-09-26T04:46:37.927Z,61.28
2023-09-26T04:49:05.807Z,61.35
2023-09-26T04:51:34.839Z,60.48
2023-09-26T04:54:03.439Z,61.29
2023-09-26T04:56:31.265Z,61.90
2023-09-26T04:59:01.356Z,62.44
2023-09-26T05:01:30.023Z,62.64
2023-09-26T05:03:58.121Z,62.51
2023-09-26T05:06:26.053Z,63.59
2023-09-26T05:08:54.950Z,63.41
2023-09-26T05:11:22.818Z,62.87
2023-09-26T05:13:50.569Z,63.64
2023-09-26T05:16:18.504Z,63.29
2023-09-26T05:18:46.147Z,63.46
2023-09-26T05:21:13.841Z,62.93
2023-09-26T05:23:41.501Z,63.73
2023-09-26T05:26:12.129Z,64.15
2023-09-26T05:28:40.406Z,64.15
2023-09-26T05:31:08.964Z,64.11
2023-09-26T05:33:36.843Z,65.10
2023-09-26T05:36:05.846Z,64.74
2023-09-26T05:38:33.610Z,65.22
2023-09-26T05:41:01.270Z,65.40
2023-09-26T05:43:30.717Z,64.79
2023-09-26T05:45:58.476Z,65.26
2023-09-26T05:48:26.154Z,64.92
2023-09-26T05:51:00.409Z,66.21
2023-09-26T05:53:28.126Z,65.97
2023-09-26T05:55:55.680Z,66.90
2023-09-26T05:58:23.343Z,65.84
2023-09-26T06:00:53.292Z,66.92
2023-09-26T06:03:21.206Z,65.97
2023-09-26T06:05:49.138Z,65.90
2023-09-26T06:08:16.878Z,65.56
2023-09-26T06:10:45.445Z,65.40
2023-09-26T06:13:14.336Z,65.20
2023-09-26T06:15:42.885Z,65.49
2023-09-26T06:18:12.158Z,65.16
2023-09-26T06:20:41.492Z,64.78
2023-09-26T06:23:09.355Z,63.76
2023-09-26T06:25:46.367Z,62.85
2023-09-26T06:28:22.160Z,62.59
2023-09-26T06:30:49.926Z,61.98
2023-09-26T06:33:18.994Z,61.30
2023-09-26T06:35:46.694Z,61.14
2023-09-26T06:38:14.620Z,62.00
2023-09-26T06:40:42.554Z,60.52
2023-09-26T06:43:10.166Z,60.18
2023-09-26T06:45:40.454Z,60.04
2023-09-26T06:48:08.599Z,59.89
2023-09-26T06:50:44.043Z,60.49
2023-09-26T06:53:11.892Z,60.46
2023-09-26T06:55:40.628Z,60.83
2023-09-26T06:58:08.439Z,60.58
2023-09-26T07:00:36.992Z,60.12
2023-09-26T07:03:05.238Z,59.96
2023-09-26T07:05:32.875Z,59.45
2023-09-26T07:08:01.796Z,59.28
2023-09-26T07:10:29.399Z,59.52
2023-09-26T07:12:57.189Z,58.93
2023-09-26T07:15:29.256Z,59.30
2023-09-26T07:17:57.106Z,58.85
2023-09-26T07:20:25.030Z,58.72
2023-09-26T07:22:52.629Z,58.68
2023-09-26T07:25:22.254Z,58.91
2023-09-26T07:27:49.976Z,59.24
2023-09-26T07:30:17.806Z,59.08
2023-09-26T07:32:46.011Z,58.50
2023-09-26T07:35:13.754Z,58.40
2023-09-26T07:37:42.165Z,58.96
2023-09-26T07:40:11.345Z,58.73
2023-09-26T07:42:41.397Z,59.32
2023-09-26T07:45:10.152Z,57.89
2023-09-26T07:47:37.846Z,57.73
2023-09-26T07:50:06.459Z,57.89
2023-09-26T07:52:34.081Z,58.00
2023-09-26T07:55:01.691Z,58.41
2023-09-26T07:57:29.320Z,58.02
2023-09-26T07:59:58.485Z,59.47
2023-09-26T08:02:26.585Z,58.42
2023-09-26T08:04:54.552Z,58.13
2023-09-26T08:07:22.558Z,57.74
2023-09-26T08:09:50.261Z,58.14
2023-09-26T08:12:18.222Z,58.03
2023-09-26T08:14:46.107Z,58.31
2023-09-26T08:17:15.359Z,57.52
2023-09-26T08:19:43.394Z,57.32
2023-09-26T08:22:11.477Z,58.11
2023-09-26T08:24:40.708Z,58.19
2023-09-26T08:27:08.559Z,58.11
2023-09-26T08:29:36.158Z,57.93
2023-09-26T08:32:03.826Z,57.89
2023-09-26T08:34:32.856Z,57.44
2023-09-26T08:37:00.535Z,57.95
2023-09-26T08:39:28.213Z,57.44
2023-09-26T08:41:58.821Z,57.06
2023-09-26T08:44:26.583Z,57.04
2023-09-26T08:46:56.153Z,56.67
2023-09-26T08:49:24.027Z,56.72
2023-09-26T08:51:53.273Z,56.65
2023-09-26T08:54:21.138Z,56.55
2023-09-26T08:56:49.205Z,55.56
2023-09-26T08:59:22.566Z,55.60
2023-09-26T09:01:52.854Z,55.26
2023-09-26T09:04:22.317Z,54.87
2023-09-26T09:06:50.555Z,55.18
2023-09-26T09:09:19.476Z,55.22
2023-09-26T09:11:47.676Z,54.79
2023-09-26T09:14:15.357Z,54.40
2023-09-26T09:16:55.880Z,54.67
2023-09-26T09:19:23.653Z,55.17
2023-09-26T09:21:51.369Z,54.98
2023-09-26T09:24:20.397Z,54.69
2023-09-26T09:26:55.050Z,54.57
2023-09-26T09:29:24.824Z,54.29
2023-09-26T09:31:53.505Z,55.08
2023-09-26T09:34:23.041Z,55.09
2023-09-26T09:36:51.640Z,54.73
2023-09-26T09:39:23.884Z,54.65
2023-09-26T09:41:51.507Z,54.80
2023-09-26T09:44:19.226Z,54.54
2023-09-26T09:46:50.071Z,54.16
2023-09-26T09:49:21.520Z,53.36
2023-09-26T09:51:50.597Z,53.49
2023-09-26T09:54:21.531Z,53.41
2023-09-26T09:56:54.389Z,52.75
2023-09-26T09:59:25.676Z,53.12
2023-09-26T10:01:56.143Z,53.26
2023-09-26T10:04:25.886Z,53.11
2023-09-26T10:06:54.571Z,53.72
2023-09-26T10:09:23.798Z,53.44
2023-09-26T10:11:54.882Z,52.60
2023-09-26T10:14:24.721Z,53.55
2023-09-26T10:16:52.753Z,52.61
2023-09-26T10:19:27.451Z,51.35
2023-09-26T10:22:15.856Z,51.42
2023-09-26T10:24:47.895Z,51.40
2023-09-26T10:27:29.547Z,51.13
2023-09-26T10:30:02.228Z,49.48
2023-09-26T10:32:34.186Z,50.74
2023-09-26T10:35:26.514Z,49.71
2023-09-26T10:37:57.528Z,49.37
2023-09-26T10:40:25.266Z,49.29
2023-09-26T10:43:28.048Z,49.73
2023-09-26T10:50:59.929Z,49.60
2023-09-26T10:53:27.741Z,47.98
2023-09-26T10:55:55.420Z,47.42
2023-09-26T10:58:23.427Z,46.61
2023-09-26T11:00:52.898Z,46.85
2023-09-26T11:03:22.386Z,46.98
2023-09-26T11:05:51.954Z,46.30
2023-09-26T11:11:07.645Z,44.80
2023-09-26T11:13:35.431Z,45.19
2023-09-26T11:16:04.889Z,44.14
2023-09-26T11:18:34.079Z,45.21
2023-09-26T11:21:09.747Z,45.34
2023-09-26T11:23:50.141Z,43.63
2023-09-26T11:26:18.644Z,43.61
2023-09-26T11:28:46.386Z,43.77
2023-09-26T11:31:16.416Z,42.95
2023-09-26T11:33:45.596Z,42.55
2023-09-26T11:36:13.213Z,42.41
2023-09-26T11:38:51.254Z,43.66
2023-09-26T11:41:26.709Z,44.23
2023-09-26T11:44:09.112Z,44.77
2023-09-26T11:46:40.866Z,43.84
2023-09-26T11:49:10.149Z,43.51
2023-09-26T11:51:38.187Z,43.22
2023-09-26T11:54:07.190Z,44.18
2023-09-26T11:56:35.255Z,43.25
2023-09-26T11:59:05.518Z,44.33
2023-09-26T12:01:34.042Z,44.02
2023-09-26T12:04:06.014Z,43.94
2023-09-26T12:06:36.010Z,44.28
2023-09-26T12:09:05.519Z,43.45
2023-09-26T12:11:33.416Z,43.52
2023-09-26T12:14:01.267Z,43.64
2023-09-26T12:16:31.077Z,43.80
2023-09-26T12:18:58.839Z,43.77
2023-09-26T12:21:26.572Z,44.12
2023-09-26T12:23:55.729Z,43.73
2023-09-26T12:26:23.425Z,43.21
2023-09-26T12:28:51.198Z,43.72
2023-09-26T12:31:19.138Z,43.08
2023-09-26T12:33:46.978Z,42.50
2023-09-26T12:36:14.749Z,42.94
2023-09-26T12:38:43.033Z,41.84
2023-09-26T12:41:12.522Z,42.01
2023-09-26T12:43:42.302Z,41.02
2023-09-26T12:46:10.149Z,40.03
2023-09-26T12:48:38.301Z,40.88
2023-09-26T12:51:06.269Z,39.13
2023-09-26T12:53:34.157Z,39.99
2023-09-26T12:56:01.834Z,41.39
2023-09-26T12:58:30.833Z,41.42
2023-09-26T13:00:58.879Z,40.47
2023-09-26T13:03:27.447Z,41.44
2023-09-26T13:05:55.419Z,40.95
2023-09-26T13:08:23.043Z,41.35
2023-09-26T13:10:50.706Z,41.04
2023-09-26T13:13:18.442Z,40.54
2023-09-26T13:15:48.223Z,40.67
2023-09-26T13:18:15.829Z,41.18
2023-09-26T13:20:43.404Z,41.94
2023-09-26T13:23:11.352Z,41.99
2023-09-26T13:25:39.039Z,40.99
2023-09-26T13:28:09.592Z,41.96
2023-09-26T13:30:38.865Z,41.15
2023-09-26T13:33:09.769Z,40.48
2023-09-26T13:35:37.494Z,40.97
2023-09-26T13:38:05.940Z,41.38
2023-09-26T13:40:33.894Z,41.89
2023-09-26T13:43:01.501Z,41.65
2023-09-26T13:45:29.305Z,41.42
2023-09-26T13:47:57.698Z,41.73
2023-09-26T13:50:26.730Z,42.41
2023-09-26T13:52:54.371Z,41.42
2023-09-26T13:55:22.476Z,41.16
2023-09-26T13:57:52.201Z,42.00
2023-09-26T14:00:19.803Z,42.49
2023-09-26T14:02:47.501Z,42.24
2023-09-26T14:07:47.297Z,42.13
2023-09-26T14:10:15.335Z,42.36
2023-09-26T14:12:43.486Z,43.31
2023-09-26T14:15:11.227Z,43.62
2023-09-26T14:17:38.833Z,43.88
2023-09-26T14:20:09.238Z,44.24
2023-09-26T14:22:39.284Z,44.66
2023-09-26T14:25:10.385Z,45.08
2023-09-26T14:27:39.686Z,44.80
2023-09-26T14:30:09.712Z,45.22
2023-09-26T14:32:38.819Z,45.48
2023-09-26T14:35:09.480Z,45.39
2023-09-26T14:37:37.362Z,45.57
2023-09-26T14:40:04.884Z,46.02
2023-09-26T14:42:33.866Z,45.78
2023-09-26T14:45:01.810Z,45.79
2023-09-26T14:47:29.552Z,46.28
2023-09-26T14:49:57.333Z,46.19
2023-09-26T14:52:25.720Z,46.26
2023-09-26T14:54:53.982Z,46.28
2023-09-26T14:57:21.603Z,46.50
2023-09-26T14:59:50.560Z,46.80
2023-09-26T15:02:18.755Z,47.51
2023-09-26T15:04:46.563Z,47.24
2023-09-26T15:07:14.582Z,48.31
2023-09-26T15:09:42.312Z,47.37
2023-09-26T15:12:09.924Z,49.01
2023-09-26T15:14:37.610Z,49.93
2023-09-26T15:17:11.993Z,48.10
2023-09-26T15:19:39.688Z,48.28
2023-09-26T15:22:07.541Z,49.90
2023-09-26T15:24:35.717Z,49.77
2023-09-26T15:27:03.540Z,51.80
2023-09-26T15:29:31.160Z,52.44
2023-09-26T15:31:59.170Z,51.18
2023-09-26T15:34:28.212Z,51.94
2023-09-26T15:36:55.865Z,50.09
2023-09-26T15:39:24.491Z,51.28
2023-09-26T15:41:52.150Z,52.19
2023-09-26T15:44:19.778Z,52.18
2023-09-26T15:46:47.436Z,53.19
2023-09-26T15:49:15.606Z,53.41
2023-09-26T15:51:44.712Z,53.02
2023-09-26T15:54:12.326Z,53.99
2023-09-26T15:56:39.955Z,53.34
2023-09-26T15:59:08.370Z,54.03
2023-09-26T16:01:36.181Z,53.78
2023-09-26T16:04:05.026Z,53.23
2023-09-26T16:06:33.616Z,53.16
2023-09-26T16:09:04.478Z,53.48
2023-09-26T16:11:32.300Z,53.94
2023-09-26T16:14:00.715Z,54.29
2023-09-26T16:16:28.431Z,53.64
2023-09-26T16:18:56.207Z,53.21
2023-09-26T16:21:23.877Z,53.94
2023-09-26T16:23:52.391Z,53.56
2023-09-26T16:26:22.348Z,53.27
2023-09-26T16:28:50.405Z,54.12
2023-09-26T16:31:18.141Z,53.80
2023-09-26T16:33:45.847Z,54.29
2023-09-26T16:36:23.301Z,54.84
2023-09-26T16:38:51.729Z,54.50
2023-09-26T16:41:19.292Z,54.43
2023-09-26T16:43:48.289Z,54.72
2023-09-26T16:46:15.908Z,54.38
2023-09-26T16:48:43.497Z,54.64
2023-09-26T16:51:11.140Z,54.50
2023-09-26T16:53:40.784Z,55.12
2023-09-26T16:56:08.497Z,54.08
2023-09-26T16:58:36.229Z,54.82
2023-09-26T17:01:12.094Z,55.02
2023-09-26T17:03:40.864Z,55.22
2023-09-26T17:06:09.133Z,55.99
2023-09-26T17:08:37.150Z,55.80
2023-09-26T17:11:05.665Z,55.99
2023-09-26T17:13:33.689Z,55.89
2023-09-26T17:16:01.357Z,56.55
2023-09-26T17:18:30.514Z,55.99
2023-09-26T17:20:59.265Z,56.68
2023-09-26T17:23:27.056Z,56.49
2023-09-26T17:25:54.766Z,56.94
2023-09-26T17:28:22.419Z,57.11
2023-09-26T17:30:52.213Z,57.16
2023-09-26T17:33:19.918Z,58.05
2023-09-26T17:35:49.196Z,57.56
2023-09-26T17:38:17.658Z,57.67
2023-09-26T17:40:45.786Z,57.93
2023-09-26T17:43:13.523Z,57.69
2023-09-26T17:45:41.893Z,58.28
2023-09-26T17:48:09.664Z,56.25
2023-09-26T17:50:39.086Z,56.59
2023-09-26T17:53:08.575Z,56.13
2023-09-26T17:55:36.617Z,57.31
2023-09-26T17:58:04.594Z,56.60
2023-09-26T18:00:32.289Z,56.98
2023-09-26T18:03:00.053Z,55.80
2023-09-26T18:05:28.400Z,56.40
2023-09-26T18:07:56.295Z,55.96
2023-09-26T18:10:25.390Z,55.25
2023-09-26T18:12:53.094Z,55.52
2023-09-26T18:15:20.916Z,55.32
2023-09-26T18:17:49.536Z,55.28
2023-09-26T18:20:17.374Z,55.42
2023-09-26T18:22:45.069Z,55.59
2023-09-26T18:25:12.982Z,56.25
2023-09-26T18:27:41.984Z,55.71
2023-09-26T18:30:10.929Z,56.04
2023-09-26T18:32:38.812Z,56.28
2023-09-26T18:35:09.834Z,56.50
2023-09-26T18:37:37.848Z,55.99
2023-09-26T18:40:06.629Z,56.04
2023-09-26T18:42:34.300Z,56.16
2023-09-26T18:45:03.840Z,56.35
2023-09-26T18:47:31.548Z,56.23
2023-09-26T18:49:59.229Z,56.82
2023-09-26T18:52:27.667Z,56.60
2023-09-26T18:54:55.523Z,56.38
2023-09-26T18:57:23.132Z,56.28
2023-09-26T18:59:50.764Z,56.57
2023-09-26T19:02:19.950Z,56.64
2023-09-26T19:04:47.856Z,56.96
2023-09-26T19:07:16.588Z,57.02
2023-09-26T19:09:44.755Z,57.17
2023-09-26T19:12:12.723Z,57.23
2023-09-26T19:14:43.851Z,57.13
2023-09-26T19:17:11.558Z,56.97
2023-09-26T19:19:40.676Z,56.70
2023-09-26T19:22:08.537Z,57.40
2023-09-26T19:24:36.339Z,56.90
2023-09-26T19:27:04.851Z,58.05
2023-09-26T19:29:32.474Z,57.83
2023-09-26T19:32:00.396Z,56.53
2023-09-26T19:34:28.072Z,56.62
2023-09-26T19:36:57.140Z,56.89
2023-09-26T19:39:25.099Z,57.29
2023-09-26T19:41:52.656Z,57.19
2023-09-26T19:44:20.514Z,57.43
2023-09-26T19:46:49.236Z,57.92
2023-09-26T19:49:17.617Z,57.94
2023-09-26T19:51:45.391Z,57.91
2023-09-26T19:54:14.340Z,58.34
2023-09-26T19:56:42.259Z,58.56
2023-09-26T19:59:10.016Z,58.30
2023-09-26T20:01:38.152Z,59.05
2023-09-26T20:04:06.101Z,59.55
2023-09-26T20:06:33.946Z,58.03
2023-09-26T20:09:01.608Z,57.71
2023-09-26T20:11:30.562Z,58.52
2023-09-26T20:13:58.339Z,59.17
2023-09-26T20:16:25.970Z,59.03
2023-09-26T20:18:54.255Z,59.01
2023-09-26T20:21:22.205Z,59.18
2023-09-26T20:23:50.676Z,59.18
2023-09-26T20:26:18.638Z,59.58
2023-09-26T20:28:49.274Z,60.11
2023-09-26T20:31:18.196Z,59.63
2023-09-26T20:33:46.212Z,60.49
2023-09-26T20:36:14.306Z,60.17
2023-09-26T20:38:50.603Z,60.43
2023-09-26T20:41:18.574Z,60.84
2023-09-26T20:43:47.832Z,60.93
2023-09-26T20:46:15.776Z,61.05
2023-09-26T20:48:43.401Z,61.33
2023-09-26T20:51:12.543Z,61.11
2023-09-26T20:53:40.161Z,60.06
2023-09-26T20:56:08.760Z,59.91
2023-09-26T20:58:37.007Z,59.76
2023-09-26T21:01:10.953Z,59.95
2023-09-26T21:03:39.504Z,59.51
2023-09-26T21:06:11.232Z,59.72
2023-09-26T21:08:38.974Z,59.97
2023-09-26T21:11:06.882Z,60.00
2023-09-26T21:13:34.881Z,59.95
2023-09-26T21:16:12.377Z,59.57
2023-09-26T21:18:41.724Z,59.47
2023-09-26T21:21:10.554Z,59.32
2023-09-26T21:23:38.244Z,59.18
2023-09-26T21:26:11.085Z,59.37
2023-09-26T21:28:39.583Z,59.45
2023-09-26T21:31:07.817Z,59.50
2023-09-26T21:33:37.191Z,59.51
2023-09-26T21:36:05.626Z,59.51
2023-09-26T21:38:33.718Z,59.73
2023-09-26T21:41:01.322Z,59.57
2023-09-26T21:43:29.053Z,59.47
2023-09-26T21:45:57.059Z,59.37
2023-09-26T21:48:24.758Z,59.47
2023-09-26T21:50:53.824Z,59.58
2023-09-26T21:53:21.776Z,59.61
2023-09-26T21:55:49.388Z,59.82
2023-09-26T21:58:17.473Z,60.31
2023-09-26T22:00:45.123Z,60.44
2023-09-26T22:03:12.776Z,60.94
2023-09-26T22:05:40.409Z,61.60
2023-09-26T22:08:10.130Z,61.24
2023-09-26T22:10:37.938Z,60.52
2023-09-26T22:13:07.015Z,60.81
2023-09-26T22:15:34.657Z,61.01
2023-09-26T22:18:03.369Z,60.43
2023-09-26T22:20:34.661Z,60.17
2023-09-26T22:23:02.973Z,60.21
2023-09-26T22:25:32.680Z,60.86
2023-09-26T22:28:00.539Z,62.10
2023-09-26T22:30:28.237Z,61.90
2023-09-26T22:32:56.001Z,61.68
2023-09-26T22:35:23.684Z,61.70
2023-09-26T22:37:51.652Z,61.97
2023-09-26T22:40:19.398Z,61.96
2023-09-26T22:42:48.626Z,62.05
2023-09-26T22:45:16.544Z,62.21
2023-09-26T22:47:44.244Z,62.02
2023-09-26T22:50:12.325Z,61.66
2023-09-26T22:52:40.081Z,61.29
2023-09-26T22:55:09.882Z,61.29
2023-09-26T22:57:37.668Z,61.63
2023-09-26T23:00:13.084Z,62.52
2023-09-26T23:02:40.878Z,63.42
2023-09-26T23:05:10.094Z,63.18
2023-09-26T23:07:37.842Z,63.44
2023-09-26T23:10:06.076Z,63.20
2023-09-26T23:12:33.907Z,63.50
2023-09-26T23:15:02.303Z,63.46
2023-09-26T23:17:31.378Z,63.82
2023-09-26T23:19:59.246Z,63.47
2023-09-26T23:22:27.104Z,63.04
2023-09-26T23:25:05.962Z,63.55
2023-09-26T23:27:33.659Z,63.37
2023-09-26T23:30:01.188Z,63.83
2023-09-26T23:32:29.408Z,63.82
2023-09-26T23:34:58.720Z,63.36
2023-09-26T23:37:26.787Z,63.36
2023-09-26T23:39:54.565Z,63.54
2023-09-26T23:42:22.178Z,63.74
2023-09-26T23:44:49.883Z,63.13
2023-09-26T23:47:17.477Z,63.06
2023-09-26T23:49:45.403Z,62.42
2023-09-26T23:52:14.740Z,62.11
2023-09-26T23:54:42.308Z,61.81
2023-09-26T23:57:09.936Z,61.94
2023-09-26T23:59:38.151Z,61.70
